createdAt,value
2019-01-27T00:00:53.586Z,1.10
2019-01-27T00:03:34.566Z,1.10
2019-01-27T00:06:14.918Z,1.10
2019-01-27T00:08:43.890Z,1.20
2019-01-27T00:11:31.984Z,1.20
2019-01-27T00:14:20.025Z,1.30
2019-01-27T00:17:08.123Z,1.30
2019-01-27T00:19:56.156Z,1.40
2019-01-27T00:22:44.350Z,1.40
2019-01-27T00:25:32.466Z,1.40
2019-01-27T00:28:20.819Z,1.50
2019-01-27T00:31:08.852Z,1.50
2019-01-27T00:33:56.966Z,1.50
2019-01-27T00:36:45.007Z,1.50
2019-01-27T00:39:33.290Z,1.50
2019-01-27T00:42:21.318Z,1.50
2019-01-27T00:45:10.238Z,1.60
2019-01-27T00:47:51.149Z,1.60
2019-01-27T00:50:29.986Z,1.60
2019-01-27T00:53:18.138Z,1.60
2019-01-27T00:56:06.534Z,1.60
2019-01-27T00:58:54.795Z,1.60
2019-01-27T01:01:42.905Z,1.60
2019-01-27T01:04:31.280Z,1.70
2019-01-27T01:07:19.454Z,1.70
2019-01-27T01:13:04.015Z,1.80
2019-01-27T01:15:52.126Z,1.70
2019-01-27T01:18:40.235Z,1.70
2019-01-27T01:21:28.425Z,1.70
2019-01-27T01:24:16.530Z,1.70
2019-01-27T01:27:04.830Z,1.80
2019-01-27T01:29:52.953Z,1.90
2019-01-27T01:32:41.066Z,2.00
2019-01-27T01:35:29.184Z,2.00
2019-01-27T01:38:17.281Z,2.10
2019-01-27T01:41:05.927Z,2.10
2019-01-27T01:43:54.197Z,2.10
2019-01-27T01:46:42.306Z,2.10
2019-01-27T01:49:23.369Z,2.00
2019-01-27T01:52:04.077Z,2.00
2019-01-27T02:01:06.286Z,1.80
2019-01-27T02:03:47.569Z,1.90
2019-01-27T02:06:28.527Z,1.80
2019-01-27T02:09:10.591Z,1.70
2019-01-27T02:11:51.430Z,1.80
2019-01-27T02:14:30.486Z,1.80
2019-01-27T02:17:18.663Z,1.80
2019-01-27T02:20:06.785Z,1.90
2019-01-27T02:22:54.898Z,1.90
2019-01-27T02:25:43.001Z,1.90
2019-01-27T02:28:31.115Z,2.00
2019-01-27T02:31:19.301Z,2.00
2019-01-27T02:34:07.594Z,2.10
2019-01-27T02:36:55.710Z,2.10
2019-01-27T02:39:43.737Z,2.10
2019-01-27T02:42:31.859Z,2.00
2019-01-27T02:45:19.952Z,1.90
2019-01-27T02:47:58.855Z,1.90
2019-01-27T02:50:27.762Z,1.80
2019-01-27T02:53:15.877Z,1.80
2019-01-27T02:59:31.750Z,1.90
2019-01-27T03:02:19.930Z,1.90
2019-01-27T03:11:22.526Z,1.80
2019-01-27T03:14:10.650Z,1.80
2019-01-27T03:16:58.767Z,1.80
2019-01-27T03:19:46.801Z,1.80
2019-01-27T03:22:34.856Z,1.70
2019-01-27T03:25:22.958Z,1.70
2019-01-27T03:28:11.093Z,1.60
2019-01-27T03:30:59.439Z,1.50
2019-01-27T03:33:47.482Z,1.50
2019-01-27T03:36:35.589Z,1.60
2019-01-27T03:39:23.697Z,1.50
2019-01-27T03:42:11.806Z,1.50
2019-01-27T03:44:59.936Z,1.50
2019-01-27T03:47:28.833Z,1.50
2019-01-27T03:50:10.007Z,1.40
2019-01-27T03:52:50.690Z,1.40
2019-01-27T03:58:15.891Z,1.40
2019-01-27T04:00:56.345Z,1.40
2019-01-27T04:03:37.168Z,1.40
2019-01-27T04:06:18.406Z,1.30
2019-01-27T04:08:58.986Z,1.20
2019-01-27T04:11:39.562Z,1.20
2019-01-27T04:14:20.290Z,1.20
2019-01-27T04:17:00.973Z,1.20
2019-01-27T04:19:41.298Z,1.10
2019-01-27T04:22:21.902Z,1.00
2019-01-27T04:25:02.322Z,1.00
2019-01-27T04:30:56.233Z,0.90
2019-01-27T04:33:37.846Z,0.90
2019-01-27T04:36:18.306Z,0.80
2019-01-27T04:38:56.802Z,0.70
2019-01-27T04:41:44.914Z,0.60
2019-01-27T04:44:32.951Z,0.60
2019-01-27T04:47:11.930Z,0.50
2019-01-27T04:50:00.278Z,0.30
2019-01-27T04:52:48.402Z,0.20
2019-01-27T04:55:36.522Z,0.10
2019-01-27T04:58:24.621Z,0.00
2019-01-27T05:01:12.750Z,-0.10
2019-01-27T05:04:20.174Z,-0.10
2019-01-27T05:07:08.283Z,-0.20
2019-01-27T05:09:56.659Z,-0.30
2019-01-27T05:12:44.990Z,-0.30
2019-01-27T05:15:33.402Z,-0.40
2019-01-27T05:18:21.446Z,-0.50
2019-01-27T05:21:09.567Z,-0.50
2019-01-27T05:23:57.847Z,-0.60
2019-01-27T05:26:45.966Z,-0.60
2019-01-27T05:29:34.002Z,-0.60
2019-01-27T05:32:22.130Z,-0.60
2019-01-27T05:35:10.242Z,0.50
2019-01-27T05:37:58.266Z,-0.70
2019-01-27T05:40:46.394Z,-0.70
2019-01-27T05:43:34.438Z,-0.70
2019-01-27T05:46:22.798Z,-0.70
2019-01-27T05:49:03.110Z,-0.70
2019-01-27T05:51:43.530Z,-0.70
2019-01-27T05:54:24.062Z,-0.80
2019-01-27T05:57:04.618Z,-0.80
2019-01-27T05:59:45.550Z,-0.80
2019-01-27T06:02:26.118Z,-0.80
2019-01-27T06:05:06.625Z,-0.70
2019-01-27T06:07:47.177Z,-0.70
2019-01-27T06:10:26.482Z,-0.70
2019-01-27T06:13:14.530Z,-0.60
2019-01-27T06:16:02.574Z,-0.60
2019-01-27T06:18:50.926Z,-0.50
2019-01-27T06:21:39.209Z,-0.40
2019-01-27T06:24:27.240Z,-0.40
2019-01-27T06:27:15.827Z,-0.40
2019-01-27T06:33:51.247Z,-0.30
2019-01-27T06:36:39.605Z,-0.30
2019-01-27T06:39:27.711Z,-0.30
2019-01-27T06:42:15.842Z,-0.30
2019-01-27T06:45:04.495Z,-0.30
2019-01-27T06:47:43.359Z,-0.30
2019-01-27T06:50:12.690Z,-0.20
2019-01-27T06:53:01.122Z,-0.20
2019-01-27T06:55:49.226Z,-0.10
2019-01-27T06:58:56.416Z,0.00
2019-01-27T07:02:03.594Z,0.00
2019-01-27T07:05:10.758Z,0.10
2019-01-27T07:08:17.951Z,0.10
2019-01-27T07:11:25.123Z,0.20
2019-01-27T07:14:32.472Z,0.20
2019-01-27T07:17:39.670Z,0.30
2019-01-27T07:20:46.958Z,0.40
2019-01-27T07:23:54.134Z,0.50
2019-01-27T07:27:01.346Z,0.60
2019-01-27T07:30:08.518Z,0.60
2019-01-27T07:33:15.709Z,0.60
2019-01-27T07:36:22.970Z,0.60
2019-01-27T07:39:30.142Z,0.70
2019-01-27T07:42:24.118Z,0.90
2019-01-27T07:45:31.916Z,1.10
2019-01-27T07:48:26.823Z,1.20
2019-01-27T07:51:33.917Z,1.30
2019-01-27T07:54:41.098Z,1.40
2019-01-27T07:57:48.271Z,1.60
2019-01-27T08:00:40.606Z,1.70
2019-01-27T08:03:34.483Z,1.70
2019-01-27T08:06:28.230Z,1.80
2019-01-27T08:09:35.338Z,1.90
2019-01-27T08:12:42.502Z,2.20
2019-01-27T08:15:49.670Z,2.50
2019-01-27T08:18:56.774Z,2.80
2019-01-27T08:22:03.950Z,3.10
2019-01-27T08:25:11.060Z,3.40
2019-01-27T08:28:18.147Z,3.60
2019-01-27T08:31:25.540Z,3.80
2019-01-27T08:34:32.706Z,3.80
2019-01-27T08:37:39.878Z,4.00
2019-01-27T08:40:47.069Z,4.10
2019-01-27T08:43:54.241Z,4.20
2019-01-27T08:47:01.421Z,4.20
2019-01-27T08:52:24.333Z,4.20
2019-01-27T08:55:04.737Z,4.20
2019-01-27T08:57:45.202Z,4.10
2019-01-27T09:03:43.202Z,4.00
2019-01-27T09:06:37.869Z,3.90
2019-01-27T09:09:45.026Z,3.90
2019-01-27T09:12:41.193Z,3.90
2019-01-27T09:15:48.366Z,3.90
2019-01-27T09:18:56.089Z,4.00
2019-01-27T09:22:03.278Z,4.00
2019-01-27T09:25:10.603Z,4.10
2019-01-27T09:28:17.951Z,4.10
2019-01-27T09:31:25.357Z,4.10
2019-01-27T09:34:32.458Z,4.00
2019-01-27T09:37:39.665Z,4.00
2019-01-27T09:40:46.762Z,4.00
2019-01-27T09:43:43.847Z,4.00
2019-01-27T09:46:50.999Z,4.00
2019-01-27T09:49:38.590Z,3.90
2019-01-27T09:52:20.114Z,3.90
2019-01-27T09:55:10.206Z,3.90
2019-01-27T09:58:12.662Z,3.90
2019-01-27T10:01:05.633Z,3.90
2019-01-27T10:03:47.130Z,3.90
2019-01-27T10:09:52.542Z,3.80
2019-01-27T10:12:55.632Z,3.70
2019-01-27T10:16:03.975Z,3.60
2019-01-27T10:19:06.502Z,3.60
2019-01-27T10:22:06.270Z,3.60
2019-01-27T10:24:59.155Z,3.60
2019-01-27T10:27:59.150Z,3.60
2019-01-27T10:31:01.919Z,3.60
2019-01-27T10:33:51.018Z,3.60
2019-01-27T10:36:38.382Z,3.60
2019-01-27T10:39:41.001Z,3.60
2019-01-27T10:42:39.170Z,3.70
2019-01-27T10:45:39.787Z,3.60
2019-01-27T10:51:49.439Z,3.70
2019-01-27T10:54:56.845Z,3.70
2019-01-27T10:58:04.014Z,3.70
2019-01-27T11:01:11.195Z,3.60
2019-01-27T11:04:18.414Z,3.70
2019-01-27T11:07:25.591Z,3.60
2019-01-27T11:10:32.768Z,3.50
2019-01-27T11:13:39.936Z,3.60
2019-01-27T11:16:47.130Z,3.70
2019-01-27T11:22:57.425Z,3.90
2019-01-27T11:26:04.606Z,3.90
2019-01-27T11:32:06.491Z,4.00
2019-01-27T11:35:13.683Z,4.10
2019-01-27T11:38:21.163Z,4.00
2019-01-27T11:41:19.034Z,4.10
2019-01-27T11:44:26.236Z,4.00
2019-01-27T11:47:21.063Z,3.90
2019-01-27T11:52:45.196Z,4.30
2019-01-27T11:55:33.330Z,4.40
2019-01-27T11:58:21.443Z,4.40
2019-01-27T12:01:09.558Z,4.40
2019-01-27T12:03:57.605Z,4.40
2019-01-27T12:06:45.778Z,4.40
2019-01-27T12:09:33.881Z,4.40
2019-01-27T12:12:21.998Z,4.50
2019-01-27T12:15:11.493Z,4.40
2019-01-27T12:17:59.618Z,4.60
2019-01-27T12:20:47.880Z,4.90
2019-01-27T12:23:35.989Z,4.80
2019-01-27T12:26:24.093Z,4.90
2019-01-27T12:29:12.241Z,4.80
2019-01-27T12:32:00.282Z,5.00
2019-01-27T12:34:48.385Z,5.00
2019-01-27T12:37:36.738Z,5.00
2019-01-27T12:40:24.844Z,5.00
2019-01-27T12:43:12.991Z,5.00
2019-01-27T12:46:01.114Z,5.00
2019-01-27T12:48:41.674Z,5.20
2019-01-27T12:51:22.371Z,5.60
2019-01-27T12:54:03.103Z,5.90
2019-01-27T12:56:41.718Z,6.00
2019-01-27T12:59:29.837Z,6.00
2019-01-27T13:02:18.192Z,6.10
2019-01-27T13:05:10.242Z,6.20
2019-01-27T13:07:56.064Z,6.10
2019-01-27T13:10:44.346Z,5.90
2019-01-27T13:13:32.482Z,6.10
2019-01-27T13:16:20.582Z,6.30
2019-01-27T13:19:08.707Z,6.40
2019-01-27T13:21:56.746Z,6.20
2019-01-27T13:24:44.794Z,6.00
2019-01-27T13:27:32.906Z,5.90
2019-01-27T13:30:21.843Z,5.80
2019-01-27T13:33:09.933Z,5.90
2019-01-27T13:35:58.274Z,6.00
2019-01-27T13:38:51.036Z,6.10
2019-01-27T13:41:36.218Z,6.20
2019-01-27T13:44:24.339Z,6.30
2019-01-27T13:47:12.449Z,6.30
2019-01-27T13:49:53.793Z,6.20
2019-01-27T13:52:34.455Z,5.90
2019-01-27T13:55:14.858Z,5.90
2019-01-27T13:57:55.466Z,5.70
2019-01-27T14:00:36.558Z,5.70
2019-01-27T14:03:17.294Z,5.80
2019-01-27T14:05:58.254Z,5.70
2019-01-27T14:08:39.434Z,5.80
2019-01-27T14:14:08.062Z,5.80
2019-01-27T14:16:48.593Z,5.80
2019-01-27T14:19:32.171Z,5.80
2019-01-27T14:22:12.898Z,5.70
2019-01-27T14:24:53.238Z,5.60
2019-01-27T14:27:31.818Z,5.50
2019-01-27T14:30:21.300Z,5.40
2019-01-27T14:33:09.458Z,5.30
2019-01-27T14:35:57.493Z,5.20
2019-01-27T14:38:45.597Z,5.00
2019-01-27T14:41:33.626Z,5.00
2019-01-27T14:44:22.023Z,5.00
2019-01-27T14:47:10.131Z,5.00
2019-01-27T14:49:52.886Z,5.00
2019-01-27T14:52:31.662Z,4.90
2019-01-27T14:55:19.778Z,5.00
2019-01-27T14:58:07.875Z,4.90
2019-01-27T15:00:56.058Z,5.00
2019-01-27T15:03:44.165Z,4.90
2019-01-27T15:06:32.279Z,4.80
2019-01-27T15:09:20.536Z,4.70
2019-01-27T15:12:08.618Z,4.60
2019-01-27T15:14:56.657Z,4.50
2019-01-27T15:17:45.020Z,4.50
2019-01-27T15:20:34.423Z,4.50
2019-01-27T15:23:22.530Z,4.60
2019-01-27T15:26:10.678Z,4.50
2019-01-27T15:28:58.702Z,4.50
2019-01-27T15:31:46.756Z,4.50
2019-01-27T15:34:15.721Z,4.40
2019-01-27T15:37:03.837Z,4.40
2019-01-27T15:39:51.986Z,4.30
2019-01-27T15:42:40.265Z,4.30
2019-01-27T15:45:28.974Z,4.30
2019-01-27T15:48:10.278Z,4.20
2019-01-27T15:50:50.670Z,4.00
2019-01-27T15:53:29.808Z,4.00
2019-01-27T15:56:17.934Z,3.90
2019-01-27T15:59:06.050Z,4.00
2019-01-27T16:01:54.170Z,4.00
2019-01-27T16:04:42.202Z,3.90
2019-01-27T16:07:30.311Z,3.90
2019-01-27T16:13:33.734Z,3.60
2019-01-27T16:16:22.162Z,3.80
2019-01-27T16:19:10.326Z,3.70
2019-01-27T16:21:58.722Z,3.80
2019-01-27T16:24:46.762Z,3.80
2019-01-27T16:27:34.797Z,3.80
2019-01-27T16:30:44.723Z,3.70
2019-01-27T16:36:24.646Z,3.70
2019-01-27T16:39:13.113Z,3.70
2019-01-27T16:42:01.262Z,3.50
2019-01-27T16:44:49.376Z,3.50
2019-01-27T16:47:37.710Z,3.50
2019-01-27T16:50:19.109Z,3.40
2019-01-27T16:53:00.134Z,3.30
2019-01-27T16:55:38.862Z,3.20
2019-01-27T16:58:26.973Z,3.10
2019-01-27T17:01:15.087Z,3.00
2019-01-27T17:04:03.205Z,3.10
2019-01-27T17:06:51.319Z,3.20
2019-01-27T17:09:39.346Z,3.30
2019-01-27T17:12:27.629Z,3.30
2019-01-27T17:15:15.723Z,3.40
2019-01-27T17:18:03.837Z,3.40
2019-01-27T17:20:51.946Z,3.40
2019-01-27T17:23:40.068Z,3.40
2019-01-27T17:26:28.105Z,3.40
2019-01-27T17:29:16.210Z,3.30
2019-01-27T17:32:04.571Z,3.20
2019-01-27T17:34:52.850Z,3.30
2019-01-27T17:37:40.976Z,3.40
2019-01-27T17:40:29.086Z,3.40
2019-01-27T17:43:17.207Z,3.40
2019-01-27T17:46:05.351Z,3.40
2019-01-27T17:48:45.704Z,3.30
2019-01-27T17:51:26.379Z,3.20
2019-01-27T17:54:08.838Z,3.20
2019-01-27T17:56:55.504Z,3.00
2019-01-27T18:00:02.672Z,2.90
2019-01-27T18:03:00.409Z,2.80
2019-01-27T18:05:58.962Z,2.90
2019-01-27T18:09:06.134Z,2.90
2019-01-27T18:12:13.556Z,2.90
2019-01-27T18:15:01.593Z,3.00
2019-01-27T18:17:49.998Z,3.00
2019-01-27T18:20:38.106Z,2.70
2019-01-27T18:23:26.232Z,2.70
2019-01-27T18:26:14.270Z,2.70
2019-01-27T18:29:02.382Z,2.60
2019-01-27T18:31:50.433Z,2.60
2019-01-27T18:34:38.559Z,2.60
2019-01-27T18:37:26.664Z,2.60
2019-01-27T18:40:15.156Z,2.50
2019-01-27T18:43:03.275Z,2.50
2019-01-27T18:45:51.380Z,2.40
2019-01-27T18:48:30.433Z,2.30
2019-01-27T18:51:18.526Z,2.30
2019-01-27T18:54:25.707Z,2.20
2019-01-27T18:57:32.995Z,2.20
2019-01-27T19:00:26.778Z,2.10
2019-01-27T19:03:34.231Z,2.00
2019-01-27T19:06:41.402Z,1.90
2019-01-27T19:09:48.515Z,1.90
2019-01-27T19:12:55.625Z,1.90
2019-01-27T19:15:52.598Z,1.80
2019-01-27T19:18:57.805Z,1.70
2019-01-27T19:22:04.986Z,1.70
2019-01-27T19:25:13.046Z,1.60
2019-01-27T19:28:20.239Z,1.70
2019-01-27T19:31:27.422Z,1.60
2019-01-27T19:34:24.830Z,1.70
2019-01-27T19:37:19.430Z,1.60
2019-01-27T19:40:27.158Z,1.70
2019-01-27T19:43:34.522Z,1.80
2019-01-27T19:46:41.710Z,2.10
2019-01-27T19:49:29.690Z,2.30
2019-01-27T19:52:36.799Z,2.50
2019-01-27T19:55:44.023Z,2.60
2019-01-27T19:58:38.501Z,2.90
2019-01-27T20:01:45.711Z,3.10
2019-01-27T20:04:52.802Z,3.20
2019-01-27T20:07:59.986Z,3.30
2019-01-27T20:11:07.203Z,3.40
2019-01-27T20:14:01.334Z,3.60
2019-01-27T20:17:08.521Z,3.50
2019-01-27T20:20:15.692Z,3.60
2019-01-27T20:23:22.890Z,3.80
2019-01-27T20:26:18.091Z,3.80
2019-01-27T20:29:25.258Z,3.80
2019-01-27T20:32:32.694Z,3.90
2019-01-27T20:35:39.859Z,4.00
2019-01-27T20:38:36.622Z,4.00
2019-01-27T20:41:44.046Z,4.10
2019-01-27T20:44:37.774Z,4.00
2019-01-27T20:47:34.838Z,4.10
2019-01-27T20:50:38.101Z,4.10
2019-01-27T20:53:36.575Z,4.10
2019-01-27T20:56:43.794Z,4.10
2019-01-27T20:59:31.913Z,4.10
2019-01-27T21:02:39.058Z,4.20
2019-01-27T21:05:46.226Z,4.30
2019-01-27T21:08:53.335Z,4.50
2019-01-27T21:11:41.363Z,4.60
2019-01-27T21:14:36.361Z,4.60
2019-01-27T21:17:43.600Z,4.60
2019-01-27T21:20:31.798Z,4.70
2019-01-27T21:23:19.913Z,4.70
2019-01-27T21:26:08.022Z,4.80
2019-01-27T21:28:56.154Z,4.80
2019-01-27T21:31:44.508Z,4.90
2019-01-27T21:34:32.598Z,4.90
2019-01-27T21:37:20.696Z,5.10
2019-01-27T21:40:10.895Z,5.10
2019-01-27T21:42:59.234Z,5.10
2019-01-27T21:45:47.350Z,5.10
2019-01-27T21:48:26.230Z,5.00
2019-01-27T21:51:14.326Z,5.00
2019-01-27T21:54:02.634Z,5.00
2019-01-27T21:56:50.742Z,5.00
2019-01-27T21:59:38.975Z,5.00
2019-01-27T22:02:27.062Z,4.90
2019-01-27T22:05:15.174Z,4.90
2019-01-27T22:08:03.273Z,4.80
2019-01-27T22:10:51.629Z,4.80
2019-01-27T22:13:39.742Z,4.70
2019-01-27T22:16:27.839Z,4.70
2019-01-27T22:19:15.958Z,4.70
2019-01-27T22:22:04.166Z,4.70
2019-01-27T22:24:52.279Z,4.60
2019-01-27T22:27:40.381Z,4.60
2019-01-27T22:30:28.495Z,4.60
2019-01-27T22:33:16.518Z,4.50
2019-01-27T22:36:05.412Z,4.50
2019-01-27T22:38:54.080Z,4.50
2019-01-27T22:41:42.505Z,4.50
2019-01-27T22:44:31.127Z,4.40
2019-01-27T22:47:19.456Z,4.20
2019-01-27T22:49:58.766Z,4.00
2019-01-27T22:52:47.693Z,4.00
2019-01-27T22:55:43.203Z,3.90
2019-01-27T22:58:31.436Z,3.80
2019-01-27T23:01:20.408Z,3.80
2019-01-27T23:04:09.347Z,3.80
2019-01-27T23:06:58.267Z,3.80
2019-01-27T23:09:47.195Z,3.90
2019-01-27T23:12:36.114Z,4.10
2019-01-27T23:15:24.505Z,4.00
2019-01-27T23:18:13.092Z,4.00
2019-01-27T23:21:01.447Z,4.00
2019-01-27T23:23:50.333Z,4.00
2019-01-27T23:26:38.990Z,3.90
2019-01-27T23:29:27.260Z,3.90
2019-01-27T23:32:16.998Z,4.00
2019-01-27T23:35:05.502Z,4.00
2019-01-27T23:38:07.815Z,4.10
2019-01-27T23:40:44.268Z,4.10
2019-01-27T23:43:32.667Z,4.00
2019-01-27T23:46:21.268Z,4.00
2019-01-27T23:49:02.068Z,3.90
2019-01-27T23:51:42.650Z,4.00
2019-01-27T23:54:11.880Z,3.90
2019-01-27T23:57:00.471Z,4.00
2019-01-27T23:59:48.896Z,3.90
